createdAt,value
2022-09-01T00:01:43.159Z,13.62
2022-09-01T00:04:13.371Z,13.42
2022-09-01T00:06:40.866Z,13.60
2022-09-01T00:09:11.363Z,13.49
2022-09-01T00:11:40.254Z,13.24
2022-09-01T00:14:10.708Z,13.45
2022-09-01T00:16:56.881Z,13.41
2022-09-01T00:19:24.395Z,13.47
2022-09-01T00:21:51.381Z,13.44
2022-09-01T00:24:19.154Z,13.11
2022-09-01T00:26:46.093Z,12.94
2022-09-01T00:29:13.183Z,12.96
2022-09-01T00:31:40.594Z,12.93
2022-09-01T00:34:07.638Z,12.95
2022-09-01T00:36:35.272Z,13.04
2022-09-01T00:39:02.738Z,13.08
2022-09-01T00:41:31.393Z,13.09
2022-09-01T00:44:01.818Z,12.95
2022-09-01T00:46:36.502Z,13.06
2022-09-01T00:49:17.129Z,12.95
2022-09-01T00:51:48.077Z,13.03
2022-09-01T00:54:21.841Z,13.00
2022-09-01T00:56:54.821Z,12.97
2022-09-01T00:59:27.013Z,12.87
2022-09-01T01:01:55.138Z,12.90
2022-09-01T01:04:22.390Z,12.91
2022-09-01T01:07:01.584Z,12.77
2022-09-01T01:09:33.134Z,12.68
2022-09-01T01:12:03.142Z,12.61
2022-09-01T01:14:31.865Z,12.68
2022-09-01T01:17:00.135Z,12.66
2022-09-01T01:20:13.167Z,12.81
2022-09-01T01:23:16.410Z,12.54
2022-09-01T01:25:50.692Z,12.46
2022-09-01T01:28:22.659Z,12.60
2022-09-01T01:30:55.344Z,12.62
2022-09-01T01:33:25.093Z,12.71
2022-09-01T01:40:15.970Z,12.72
2022-09-01T01:42:48.660Z,12.59
2022-09-01T01:45:17.739Z,12.63
2022-09-01T01:47:53.084Z,12.60
2022-09-01T01:50:27.467Z,12.39
2022-09-01T01:52:58.095Z,12.39
2022-09-01T01:55:28.990Z,12.47
2022-09-01T01:57:59.149Z,12.40
2022-09-01T02:00:30.411Z,12.43
2022-09-01T02:02:58.667Z,12.43
2022-09-01T02:05:28.968Z,12.37
2022-09-01T02:07:59.879Z,12.24
2022-09-01T02:10:33.560Z,12.32
2022-09-01T02:13:07.227Z,12.26
2022-09-01T02:15:44.366Z,11.97
2022-09-01T02:18:24.627Z,12.22
2022-09-01T02:20:53.006Z,12.09
2022-09-01T02:23:24.343Z,12.03
2022-09-01T02:28:54.759Z,11.88
2022-09-01T02:31:27.798Z,11.84
2022-09-01T02:33:54.953Z,11.80
2022-09-01T02:36:22.696Z,11.94
2022-09-01T02:38:53.647Z,11.90
2022-09-01T02:41:24.988Z,11.84
2022-09-01T02:43:51.936Z,11.90
2022-09-01T02:46:20.464Z,11.93
2022-09-01T02:48:51.508Z,11.88
2022-09-01T02:51:22.394Z,11.95
2022-09-01T02:53:52.901Z,11.95
2022-09-01T02:56:25.329Z,11.96
2022-09-01T02:58:53.938Z,11.90
2022-09-01T03:01:30.181Z,11.89
2022-09-01T03:04:01.034Z,11.93
2022-09-01T03:06:28.117Z,11.82
2022-09-01T03:08:59.554Z,11.82
2022-09-01T03:11:29.472Z,11.92
2022-09-01T03:13:56.190Z,11.91
2022-09-01T03:16:22.815Z,11.82
2022-09-01T03:18:50.636Z,11.70
2022-09-01T03:21:18.790Z,11.65
2022-09-01T03:23:46.851Z,11.53
2022-09-01T03:26:14.733Z,11.55
2022-09-01T03:28:41.753Z,11.49
2022-09-01T03:31:08.978Z,11.48
2022-09-01T03:33:36.757Z,11.65
2022-09-01T03:36:14.920Z,11.61
2022-09-01T03:38:44.147Z,11.34
2022-09-01T03:41:13.141Z,11.41
2022-09-01T03:43:47.020Z,11.33
2022-09-01T03:46:21.805Z,11.38
2022-09-01T03:48:55.169Z,11.18
2022-09-01T03:51:23.533Z,11.19
2022-09-01T03:53:54.770Z,11.20
2022-09-01T03:56:26.299Z,11.23
2022-09-01T03:58:56.129Z,11.17
2022-09-01T04:01:24.351Z,11.26
2022-09-01T04:03:52.103Z,11.15
2022-09-01T04:06:24.225Z,11.06
2022-09-01T04:08:56.424Z,11.21
2022-09-01T04:11:24.356Z,11.26
2022-09-01T04:13:52.431Z,11.18
2022-09-01T04:16:46.763Z,11.17
2022-09-01T04:19:19.979Z,11.05
2022-09-01T04:21:50.434Z,10.97
2022-09-01T04:24:18.995Z,11.12
2022-09-01T04:26:48.753Z,11.21
2022-09-01T04:29:19.270Z,11.30
2022-09-01T04:31:49.120Z,11.32
2022-09-01T04:34:16.218Z,11.46
2022-09-01T04:36:44.773Z,11.44
2022-09-01T04:39:13.248Z,11.39
2022-09-01T04:41:45.939Z,11.39
2022-09-01T04:44:16.733Z,11.04
2022-09-01T04:46:46.304Z,11.59
2022-09-01T04:49:19.646Z,11.56
2022-09-01T04:51:53.630Z,11.44
2022-09-01T04:54:22.973Z,11.41
2022-09-01T04:56:52.543Z,11.23
2022-09-01T04:59:22.234Z,11.19
2022-09-01T05:01:57.437Z,11.15
2022-09-01T05:04:27.689Z,11.06
2022-09-01T05:06:59.744Z,10.91
2022-09-01T05:09:35.615Z,11.18
2022-09-01T05:12:15.840Z,11.85
2022-09-01T05:14:48.322Z,12.23
2022-09-01T05:17:18.623Z,12.52
2022-09-01T05:19:48.630Z,12.66
2022-09-01T05:22:18.640Z,12.70
2022-09-01T05:24:55.400Z,12.85
2022-09-01T05:27:22.851Z,13.01
2022-09-01T05:29:49.720Z,13.19
2022-09-01T05:32:16.422Z,13.21
2022-09-01T05:34:45.075Z,13.32
2022-09-01T05:37:14.483Z,13.51
2022-09-01T05:39:41.179Z,13.56
2022-09-01T05:42:08.395Z,13.73
2022-09-01T05:44:44.114Z,13.86
2022-09-01T05:47:20.606Z,14.12
2022-09-01T05:49:50.316Z,14.15
2022-09-01T05:52:17.478Z,14.18
2022-09-01T05:54:47.944Z,14.30
2022-09-01T05:57:33.874Z,14.31
2022-09-01T06:00:03.544Z,14.39
2022-09-01T06:02:43.393Z,14.46
2022-09-01T06:05:15.845Z,15.06
2022-09-01T06:07:42.904Z,15.35
2022-09-01T06:10:10.758Z,15.60
2022-09-01T06:12:37.698Z,15.84
2022-09-01T06:15:15.530Z,16.04
2022-09-01T06:17:44.667Z,16.30
2022-09-01T06:20:11.226Z,16.41
2022-09-01T06:22:41.109Z,16.59
2022-09-01T06:25:09.442Z,16.81
2022-09-01T06:27:44.947Z,17.00
2022-09-01T06:30:23.049Z,17.21
2022-09-01T06:33:05.977Z,17.44
2022-09-01T06:35:33.895Z,17.60
2022-09-01T06:38:01.860Z,17.76
2022-09-01T06:40:39.539Z,18.07
2022-09-01T06:43:08.040Z,18.36
2022-09-01T06:45:49.625Z,18.56
2022-09-01T06:48:17.802Z,18.60
2022-09-01T06:53:35.228Z,18.50
2022-09-01T06:56:04.745Z,18.74
2022-09-01T06:58:33.209Z,18.65
2022-09-01T07:01:00.079Z,18.31
2022-09-01T07:03:26.946Z,18.31
2022-09-01T07:09:38.503Z,18.09
2022-09-01T07:12:25.707Z,18.04
2022-09-01T07:17:42.572Z,18.14
2022-09-01T07:20:26.797Z,18.12
2022-09-01T07:26:01.315Z,17.90
2022-09-01T07:28:41.849Z,17.66
2022-09-01T07:39:49.949Z,18.22
2022-09-01T07:45:58.670Z,18.31
2022-09-01T07:51:36.054Z,18.00
2022-09-01T07:54:03.728Z,18.12
2022-09-01T07:56:30.380Z,17.76
2022-09-01T07:58:58.570Z,17.93
2022-09-01T08:01:27.526Z,18.72
2022-09-01T08:03:58.051Z,18.35
2022-09-01T08:06:27.976Z,18.05
2022-09-01T08:08:57.663Z,18.92
2022-09-01T08:11:51.502Z,18.41
2022-09-01T08:14:18.272Z,18.87
2022-09-01T08:16:52.716Z,18.95
2022-09-01T08:19:19.991Z,18.80
2022-09-01T08:22:04.373Z,18.80
2022-09-01T08:24:49.703Z,19.11
2022-09-01T08:27:16.218Z,19.58
2022-09-01T08:29:43.241Z,19.22
2022-09-01T08:32:11.985Z,19.37
2022-09-01T08:34:38.827Z,19.34
2022-09-01T08:37:06.642Z,18.82
2022-09-01T08:39:34.084Z,18.50
2022-09-01T08:42:33.125Z,17.72
2022-09-01T08:45:02.758Z,18.09
2022-09-01T08:47:43.631Z,18.08
2022-09-01T08:50:20.793Z,17.90
2022-09-01T08:53:09.626Z,17.88
2022-09-01T08:55:44.743Z,17.94
2022-09-01T08:58:16.703Z,18.02
2022-09-01T09:01:27.573Z,17.92
2022-09-01T09:04:12.247Z,18.06
2022-09-01T09:06:53.483Z,18.35
2022-09-01T09:09:32.379Z,18.57
2022-09-01T09:12:52.688Z,18.67
2022-09-01T09:15:33.664Z,18.69
2022-09-01T09:18:20.283Z,18.14
2022-09-01T09:21:19.893Z,17.97
2022-09-01T09:23:50.874Z,18.04
2022-09-01T09:26:22.206Z,17.98
2022-09-01T09:28:50.031Z,17.82
2022-09-01T09:31:28.867Z,17.62
2022-09-01T09:33:56.281Z,17.83
2022-09-01T09:36:30.718Z,17.87
2022-09-01T09:39:17.144Z,17.87
2022-09-01T09:42:01.478Z,17.80
2022-09-01T09:44:31.835Z,18.13
2022-09-01T09:46:58.425Z,18.10
2022-09-01T09:49:37.350Z,18.16
2022-09-01T09:52:08.638Z,18.40
2022-09-01T09:54:37.192Z,18.91
2022-09-01T09:57:16.196Z,19.43
2022-09-01T09:59:58.753Z,19.22
2022-09-01T10:02:38.849Z,18.67
2022-09-01T10:05:33.614Z,18.55
2022-09-01T10:08:00.075Z,18.60
2022-09-01T10:10:57.512Z,18.61
2022-09-01T10:13:29.470Z,18.48
2022-09-01T10:16:19.292Z,18.33
2022-09-01T10:18:51.357Z,18.46
2022-09-01T10:21:27.123Z,18.26
2022-09-01T10:23:54.704Z,18.18
2022-09-01T10:26:31.666Z,18.36
2022-09-01T10:29:06.607Z,18.27
2022-09-01T10:31:34.683Z,18.37
2022-09-01T10:34:05.659Z,18.58
2022-09-01T10:36:36.704Z,18.97
2022-09-01T10:39:08.768Z,19.38
2022-09-01T10:41:59.720Z,19.39
2022-09-01T10:44:38.910Z,19.32
2022-09-01T10:47:24.198Z,19.42
2022-09-01T10:49:50.656Z,19.35
2022-09-01T10:52:43.374Z,19.49
2022-09-01T10:55:25.404Z,19.22
2022-09-01T11:01:15.611Z,19.02
2022-09-01T11:03:56.751Z,19.07
2022-09-01T11:06:42.216Z,19.18
2022-09-01T11:09:21.258Z,19.08
2022-09-01T11:12:15.139Z,18.76
2022-09-01T11:14:54.217Z,18.87
2022-09-01T11:17:25.764Z,18.60
2022-09-01T11:19:59.984Z,18.80
2022-09-01T11:22:34.735Z,18.86
2022-09-01T11:25:47.156Z,19.15
2022-09-01T11:28:18.595Z,18.87
2022-09-01T11:31:00.425Z,18.78
2022-09-01T11:33:33.970Z,19.15
2022-09-01T11:36:29.406Z,19.59
2022-09-01T11:39:04.772Z,19.92
2022-09-01T11:41:58.589Z,20.03
2022-09-01T11:44:33.914Z,20.20
2022-09-01T11:47:10.722Z,20.45
2022-09-01T11:49:48.187Z,20.69
2022-09-01T11:52:19.430Z,20.51
2022-09-01T11:54:50.058Z,20.41
2022-09-01T11:57:21.734Z,20.27
2022-09-01T11:59:48.655Z,20.05
2022-09-01T12:02:28.080Z,20.16
2022-09-01T12:04:56.213Z,20.20
2022-09-01T12:07:55.030Z,20.51
2022-09-01T12:10:33.574Z,20.08
2022-09-01T12:13:13.039Z,20.21
2022-09-01T12:16:07.106Z,20.32
2022-09-01T12:18:35.563Z,20.32
2022-09-01T12:21:04.632Z,20.58
2022-09-01T12:23:34.345Z,20.74
2022-09-01T12:26:04.206Z,20.91
2022-09-01T12:28:33.037Z,21.18
2022-09-01T12:31:04.132Z,21.32
2022-09-01T12:33:34.889Z,21.25
2022-09-01T12:36:13.667Z,21.12
2022-09-01T12:38:40.259Z,20.97
2022-09-01T12:41:40.772Z,20.88
2022-09-01T12:44:31.741Z,21.14
2022-09-01T12:47:06.717Z,21.37
2022-09-01T12:49:50.185Z,21.30
2022-09-01T12:52:19.892Z,21.13
2022-09-01T12:54:51.605Z,21.14
2022-09-01T12:57:32.002Z,21.03
2022-09-01T13:00:10.732Z,21.20
2022-09-01T13:02:40.733Z,21.30
2022-09-01T13:05:31.856Z,21.09
2022-09-01T13:08:16.393Z,21.06
2022-09-01T13:11:04.797Z,20.93
2022-09-01T13:13:31.532Z,21.03
2022-09-01T13:16:03.386Z,20.91
2022-09-01T13:18:30.407Z,21.16
2022-09-01T13:20:58.121Z,21.15
2022-09-01T13:23:24.682Z,21.48
2022-09-01T13:25:51.397Z,21.38
2022-09-01T13:28:19.229Z,21.16
2022-09-01T13:31:28.434Z,21.43
2022-09-01T13:39:12.967Z,21.84
2022-09-01T13:41:39.498Z,21.69
2022-09-01T13:44:06.151Z,21.54
2022-09-01T13:46:32.578Z,21.75
2022-09-01T13:49:02.821Z,21.98
2022-09-01T13:51:29.950Z,21.89
2022-09-01T13:53:56.482Z,21.73
2022-09-01T13:56:22.913Z,21.70
2022-09-01T13:58:49.434Z,21.62
2022-09-01T14:01:16.538Z,21.70
2022-09-01T14:03:43.933Z,21.78
2022-09-01T14:06:10.517Z,21.34
2022-09-01T14:08:37.089Z,21.52
2022-09-01T14:11:03.898Z,21.56
2022-09-01T14:13:31.463Z,21.67
2022-09-01T14:15:58.907Z,21.85
2022-09-01T14:18:32.007Z,21.85
2022-09-01T14:21:01.218Z,21.92
2022-09-01T14:23:27.954Z,21.58
2022-09-01T14:25:54.422Z,21.50
2022-09-01T14:28:22.713Z,21.72
2022-09-01T14:33:18.100Z,21.58
2022-09-01T14:35:47.970Z,21.48
2022-09-01T14:38:15.114Z,21.48
2022-09-01T14:40:43.105Z,21.63
2022-09-01T14:43:11.731Z,21.56
2022-09-01T14:45:38.273Z,21.39
2022-09-01T14:48:05.768Z,21.36
2022-09-01T14:50:32.729Z,21.60
2022-09-01T14:53:01.064Z,21.61
2022-09-01T14:55:30.045Z,21.61
2022-09-01T14:57:57.762Z,21.62
2022-09-01T15:00:27.398Z,21.42
2022-09-01T15:02:55.997Z,21.43
2022-09-01T15:05:23.058Z,21.17
2022-09-01T15:07:50.409Z,21.31
2022-09-01T15:10:24.950Z,21.31
2022-09-01T15:12:57.703Z,21.31
2022-09-01T15:15:25.131Z,21.13
2022-09-01T15:17:52.106Z,21.11
2022-09-01T15:20:37.238Z,21.26
2022-09-01T15:23:04.828Z,21.12
2022-09-01T15:25:31.287Z,21.15
2022-09-01T15:27:57.832Z,21.21
2022-09-01T15:30:24.436Z,21.20
2022-09-01T15:32:53.208Z,21.03
2022-09-01T15:35:21.252Z,20.87
2022-09-01T15:37:49.455Z,20.97
2022-09-01T15:40:17.046Z,21.05
2022-09-01T15:42:44.134Z,21.02
2022-09-01T15:45:14.900Z,21.03
2022-09-01T15:47:45.659Z,20.95
2022-09-01T15:50:21.065Z,20.88
2022-09-01T15:52:51.364Z,21.17
2022-09-01T15:55:27.375Z,20.89
2022-09-01T15:57:55.070Z,20.90
2022-09-01T16:00:25.238Z,21.00
2022-09-01T16:02:54.355Z,21.16
2022-09-01T16:05:21.030Z,21.24
2022-09-01T16:07:47.550Z,21.27
2022-09-01T16:10:14.597Z,21.22
2022-09-01T16:12:43.831Z,21.22
2022-09-01T16:15:13.532Z,21.31
2022-09-01T16:17:55.133Z,21.05
2022-09-01T16:21:14.908Z,21.03
2022-09-01T16:23:48.916Z,20.95
2022-09-01T16:26:17.666Z,21.07
2022-09-01T16:28:56.439Z,21.17
2022-09-01T16:31:25.958Z,21.17
2022-09-01T16:33:56.149Z,21.13
2022-09-01T16:36:40.566Z,21.12
2022-09-01T16:39:28.007Z,21.02
2022-09-01T16:42:19.011Z,20.89
2022-09-01T16:45:00.532Z,20.76
2022-09-01T16:47:33.377Z,20.92
2022-09-01T16:50:05.541Z,21.03
2022-09-01T16:52:56.089Z,21.07
2022-09-01T16:55:46.749Z,20.81
2022-09-01T16:58:25.435Z,20.88
2022-09-01T17:01:07.183Z,20.95
2022-09-01T17:03:42.743Z,20.97
2022-09-01T17:06:51.694Z,20.99
2022-09-01T17:09:38.782Z,20.84
2022-09-01T17:12:11.796Z,20.82
2022-09-01T17:14:47.422Z,20.80
2022-09-01T17:17:24.659Z,20.53
2022-09-01T17:19:54.226Z,20.59
2022-09-01T17:22:21.932Z,20.30
2022-09-01T17:24:56.680Z,20.23
2022-09-01T17:28:00.109Z,20.29
2022-09-01T17:30:26.857Z,20.15
2022-09-01T17:33:13.039Z,20.02
2022-09-01T17:35:53.043Z,20.00
2022-09-01T17:38:53.906Z,20.00
2022-09-01T17:41:41.923Z,19.74
2022-09-01T17:44:35.468Z,19.80
2022-09-01T17:47:23.304Z,19.75
2022-09-01T17:50:03.146Z,19.71
2022-09-01T17:52:53.302Z,19.74
2022-09-01T17:55:19.780Z,19.58
2022-09-01T17:58:06.853Z,19.67
2022-09-01T18:00:54.766Z,19.73
2022-09-01T18:03:52.375Z,19.78
2022-09-01T18:06:27.738Z,19.77
2022-09-01T18:08:58.288Z,19.77
2022-09-01T18:11:49.232Z,19.81
2022-09-01T18:14:53.369Z,19.84
2022-09-01T18:17:31.947Z,19.74
2022-09-01T18:20:07.913Z,19.74
2022-09-01T18:23:01.902Z,19.73
2022-09-01T18:25:41.462Z,19.77
2022-09-01T18:28:09.317Z,19.68
2022-09-01T18:30:55.717Z,19.66
2022-09-01T18:33:36.635Z,19.50
2022-09-01T18:36:24.601Z,19.49
2022-09-01T18:39:11.447Z,19.54
2022-09-01T18:41:55.746Z,19.53
2022-09-01T18:44:53.210Z,19.49
2022-09-01T18:47:31.802Z,19.29
2022-09-01T18:50:17.033Z,19.31
2022-09-01T18:53:10.413Z,19.03
2022-09-01T18:56:05.754Z,18.88
2022-09-01T18:58:36.648Z,18.96
2022-09-01T19:01:07.051Z,19.02
2022-09-01T19:03:43.541Z,18.94
2022-09-01T19:06:30.542Z,18.95
2022-09-01T19:09:26.064Z,18.90
2022-09-01T19:12:35.655Z,18.79
2022-09-01T19:15:08.726Z,18.67
2022-09-01T19:18:04.065Z,18.49
2022-09-01T19:20:49.894Z,18.73
2022-09-01T19:23:34.158Z,18.70
2022-09-01T19:26:06.555Z,18.66
2022-09-01T19:28:39.685Z,18.64
2022-09-01T19:31:13.092Z,18.64
2022-09-01T19:33:44.090Z,18.51
2022-09-01T19:36:18.141Z,18.55
2022-09-01T19:38:45.027Z,18.50
2022-09-01T19:41:37.409Z,18.37
2022-09-01T19:44:32.455Z,18.23
2022-09-01T19:47:11.098Z,18.23
2022-09-01T19:49:44.894Z,18.32
2022-09-01T19:52:46.011Z,18.32
2022-09-01T19:55:19.413Z,18.28
2022-09-01T19:57:57.008Z,18.24
2022-09-01T20:00:35.066Z,17.95
2022-09-01T20:03:32.946Z,18.11
2022-09-01T20:06:16.232Z,18.12
2022-09-01T20:09:05.900Z,18.16
2022-09-01T20:11:53.212Z,18.14
2022-09-01T20:14:48.294Z,18.05
2022-09-01T20:17:30.654Z,18.02
2022-09-01T20:20:07.585Z,17.77
2022-09-01T20:22:51.336Z,17.87
2022-09-01T20:25:25.852Z,17.93
2022-09-01T20:28:19.732Z,17.94
2022-09-01T20:30:53.076Z,17.84
2022-09-01T20:33:25.618Z,17.86
2022-09-01T20:36:01.930Z,17.82
2022-09-01T20:38:53.142Z,17.88
2022-09-01T20:41:37.427Z,17.85
2022-09-01T20:44:18.712Z,17.64
2022-09-01T20:46:47.432Z,17.69
2022-09-01T20:49:15.935Z,17.66
2022-09-01T20:51:57.403Z,17.66
2022-09-01T20:54:29.831Z,17.66
2022-09-01T20:57:02.439Z,17.57
2022-09-01T20:59:43.005Z,17.54
2022-09-01T21:02:31.639Z,17.45
2022-09-01T21:05:26.226Z,17.56
2022-09-01T21:08:19.733Z,17.55
2022-09-01T21:11:16.693Z,17.28
2022-09-01T21:14:07.380Z,17.34
2022-09-01T21:16:36.559Z,17.37
2022-09-01T21:19:18.382Z,17.28
2022-09-01T21:22:14.478Z,17.29
2022-09-01T21:24:43.497Z,17.08
2022-09-01T21:27:23.346Z,16.96
2022-09-01T21:29:53.487Z,16.93
2022-09-01T21:32:20.642Z,16.84
2022-09-01T21:34:48.046Z,16.90
2022-09-01T21:37:14.928Z,16.93
2022-09-01T21:39:41.328Z,16.90
2022-09-01T21:42:10.494Z,16.84
2022-09-01T21:44:37.274Z,16.88
2022-09-01T21:47:04.515Z,16.74
2022-09-01T21:49:32.245Z,16.92
2022-09-01T21:52:00.086Z,16.88
2022-09-01T21:54:26.592Z,16.87
2022-09-01T21:56:53.372Z,16.79
2022-09-01T21:59:20.098Z,16.60
2022-09-01T22:01:47.149Z,16.46
2022-09-01T22:04:13.938Z,16.55
2022-09-01T22:06:41.038Z,16.57
2022-09-01T22:09:21.318Z,16.50
2022-09-01T22:11:50.255Z,16.44
2022-09-01T22:14:19.165Z,16.30
2022-09-01T22:16:46.282Z,16.18
2022-09-01T22:19:13.000Z,16.05
2022-09-01T22:21:39.675Z,16.00
2022-09-01T22:24:06.761Z,16.01
2022-09-01T22:26:34.435Z,15.88
2022-09-01T22:29:04.526Z,15.90
2022-09-01T22:31:33.172Z,15.87
2022-09-01T22:34:00.437Z,16.03
2022-09-01T22:36:34.574Z,15.99
2022-09-01T22:39:01.518Z,16.03
2022-09-01T22:41:29.739Z,15.99
2022-09-01T22:43:57.895Z,15.92
2022-09-01T22:46:27.253Z,15.81
2022-09-01T22:48:55.805Z,15.69
2022-09-01T22:51:23.025Z,15.45
2022-09-01T22:53:49.508Z,15.50
2022-09-01T22:56:27.736Z,15.41
2022-09-01T22:58:56.757Z,15.47
2022-09-01T23:01:26.812Z,15.28
2022-09-01T23:03:53.622Z,15.28
2022-09-01T23:06:27.987Z,15.40
2022-09-01T23:08:59.197Z,15.31
2022-09-01T23:11:26.374Z,15.18
2022-09-01T23:13:53.821Z,15.21
2022-09-01T23:16:22.433Z,15.10
2022-09-01T23:18:50.089Z,14.91
2022-09-01T23:21:20.015Z,14.70
2022-09-01T23:23:47.388Z,14.68
2022-09-01T23:26:15.048Z,14.56
2022-09-01T23:28:42.869Z,14.65
2022-09-01T23:31:13.549Z,14.65
2022-09-01T23:33:40.114Z,14.64
2022-09-01T23:36:11.822Z,14.62
2022-09-01T23:38:38.842Z,14.43
2022-09-01T23:41:10.665Z,14.40
2022-09-01T23:43:38.035Z,14.36
2022-09-01T23:46:05.739Z,14.31
2022-09-01T23:48:33.423Z,14.25
2022-09-01T23:51:08.465Z,13.99
2022-09-01T23:53:37.399Z,14.15
2022-09-01T23:56:09.544Z,14.10
2022-09-01T23:58:36.878Z,14.23
